createdAt,value
2023-01-25T00:02:12.996Z,96101.38
2023-01-25T00:04:39.648Z,96113.34
2023-01-25T00:07:06.381Z,96103.75
2023-01-25T00:09:32.972Z,96095.91
2023-01-25T00:11:59.578Z,96103.63
2023-01-25T00:14:26.244Z,96106.63
2023-01-25T00:16:53.258Z,96112.81
2023-01-25T00:19:20.103Z,96102.13
2023-01-25T00:21:46.733Z,96101.31
2023-01-25T00:24:14.621Z,96102.03
2023-01-25T00:26:44.112Z,96090.03
2023-01-25T00:29:14.276Z,96083.88
2023-01-25T00:31:45.127Z,96104.72
2023-01-25T00:34:26.692Z,96102.03
2023-01-25T00:36:58.249Z,96107.78
2023-01-25T00:39:27.040Z,96107.84
2023-01-25T00:41:54.015Z,96104.69
2023-01-25T00:44:20.816Z,96112.75
2023-01-25T00:46:47.535Z,96111.47
2023-01-25T00:49:28.349Z,96112.34
2023-01-25T00:51:58.182Z,96108.44
2023-01-25T00:54:25.442Z,96103.84
2023-01-25T00:56:53.882Z,96095.28
2023-01-25T00:59:21.170Z,96109.66
2023-01-25T01:01:47.783Z,96096.13
2023-01-25T01:04:14.738Z,96111.13
2023-01-25T01:06:42.496Z,96094.09
2023-01-25T01:09:14.018Z,96101.75
2023-01-25T01:11:40.846Z,96098.28
2023-01-25T01:14:07.834Z,96107.16
2023-01-25T01:16:35.336Z,96101.09
2023-01-25T01:19:02.165Z,96108.88
2023-01-25T01:21:28.817Z,96103.22
2023-01-25T01:23:56.217Z,96095.53
2023-01-25T01:26:23.597Z,96096.25
2023-01-25T01:28:50.535Z,96091.59
2023-01-25T01:31:20.140Z,96089.25
2023-01-25T01:33:55.028Z,96086.00
2023-01-25T01:36:23.892Z,96077.56
2023-01-25T01:38:50.793Z,96087.25
2023-01-25T01:41:18.249Z,96085.69
2023-01-25T01:43:45.218Z,96077.63
2023-01-25T01:46:37.606Z,96087.59
2023-01-25T01:49:21.258Z,96056.72
2023-01-25T01:51:52.948Z,96090.78
2023-01-25T01:54:25.957Z,96080.50
2023-01-25T01:57:00.722Z,96080.19
2023-01-25T01:59:34.332Z,96074.47
2023-01-25T02:02:01.105Z,96075.13
2023-01-25T02:04:28.466Z,96091.06
2023-01-25T02:07:02.551Z,96084.16
2023-01-25T02:09:32.173Z,96089.75
2023-01-25T02:12:00.067Z,96072.56
2023-01-25T02:14:29.337Z,96078.41
2023-01-25T02:16:56.579Z,96084.53
2023-01-25T02:20:00.874Z,96078.31
2023-01-25T02:22:44.396Z,96088.66
2023-01-25T02:25:13.382Z,96089.38
2023-01-25T02:27:48.745Z,96074.88
2023-01-25T02:30:15.518Z,96085.56
2023-01-25T02:32:42.112Z,96072.59
2023-01-25T02:35:19.322Z,96084.81
2023-01-25T02:37:46.647Z,96058.56
2023-01-25T02:40:13.321Z,96075.66
2023-01-25T02:42:43.908Z,96069.53
2023-01-25T02:45:15.039Z,96062.25
2023-01-25T02:47:41.646Z,96056.50
2023-01-25T02:50:09.132Z,96053.31
2023-01-25T02:52:35.706Z,96065.75
2023-01-25T02:55:02.312Z,96071.44
2023-01-25T02:57:28.963Z,96067.69
2023-01-25T02:59:55.621Z,96071.06
2023-01-25T03:02:22.582Z,96072.28
2023-01-25T03:04:49.149Z,96062.03
2023-01-25T03:07:15.757Z,96067.59
2023-01-25T03:09:42.416Z,96073.94
2023-01-25T03:12:09.011Z,96074.38
2023-01-25T03:14:35.605Z,96073.84
2023-01-25T03:17:02.193Z,96071.84
2023-01-25T03:19:28.884Z,96073.97
2023-01-25T03:21:55.471Z,96076.59
2023-01-25T03:24:22.165Z,96072.69
2023-01-25T03:27:07.314Z,96045.19
2023-01-25T03:29:33.964Z,96054.97
2023-01-25T03:32:00.650Z,96063.47
2023-01-25T03:34:27.395Z,96073.09
2023-01-25T03:36:54.109Z,96063.94
2023-01-25T03:39:20.843Z,96074.16
2023-01-25T03:41:47.650Z,96078.72
2023-01-25T03:44:14.311Z,96070.00
2023-01-25T03:46:41.822Z,96033.28
2023-01-25T03:49:09.624Z,96069.13
2023-01-25T03:51:36.431Z,96066.75
2023-01-25T03:54:03.306Z,96052.00
2023-01-25T03:56:29.930Z,96057.09
2023-01-25T03:58:56.585Z,96066.59
2023-01-25T04:01:23.318Z,96064.75
2023-01-25T04:03:49.948Z,96028.66
2023-01-25T04:06:16.560Z,96056.13
2023-01-25T04:08:43.263Z,96043.28
2023-01-25T04:11:10.604Z,96053.03
2023-01-25T04:13:38.343Z,96035.03
2023-01-25T04:16:07.197Z,96036.97
2023-01-25T04:18:34.158Z,96036.81
2023-01-25T04:21:01.021Z,96062.66
2023-01-25T04:23:27.615Z,96044.25
2023-01-25T04:25:56.771Z,96046.72
2023-01-25T04:28:24.226Z,96053.63
2023-01-25T04:30:51.190Z,96042.00
2023-01-25T04:33:17.862Z,96060.47
2023-01-25T04:35:45.006Z,96045.13
2023-01-25T04:38:12.434Z,96057.94
2023-01-25T04:40:39.787Z,96064.00
2023-01-25T04:43:06.604Z,96054.13
2023-01-25T04:45:33.710Z,96060.06
2023-01-25T04:48:05.449Z,96048.44
2023-01-25T04:50:32.204Z,96071.63
2023-01-25T04:52:58.790Z,96075.47
2023-01-25T04:55:25.407Z,96056.88
2023-01-25T04:57:52.104Z,96061.53
2023-01-25T05:00:19.486Z,96068.16
2023-01-25T05:02:46.252Z,96064.25
2023-01-25T05:05:13.204Z,96068.06
2023-01-25T05:07:39.984Z,96042.59
2023-01-25T05:10:07.770Z,96063.53
2023-01-25T05:12:34.443Z,96063.53
2023-01-25T05:15:01.040Z,96062.06
2023-01-25T05:17:27.611Z,96060.63
2023-01-25T05:19:54.248Z,96061.72
2023-01-25T05:22:21.122Z,96047.03
2023-01-25T05:24:48.714Z,96050.13
2023-01-25T05:27:17.729Z,96054.03
2023-01-25T05:29:45.630Z,96052.41
2023-01-25T05:32:17.753Z,96048.22
2023-01-25T05:34:45.117Z,96059.38
2023-01-25T05:37:15.491Z,96058.13
2023-01-25T05:39:42.134Z,96057.00
2023-01-25T05:42:14.515Z,96060.94
2023-01-25T05:44:41.330Z,96028.91
2023-01-25T05:47:12.771Z,96044.34
2023-01-25T05:49:39.492Z,96062.88
2023-01-25T05:52:06.138Z,96050.56
2023-01-25T05:54:32.793Z,96058.97
2023-01-25T05:57:00.201Z,96059.56
2023-01-25T05:59:26.888Z,96069.59
2023-01-25T06:01:53.487Z,96070.00
2023-01-25T06:04:20.101Z,96072.59
2023-01-25T06:06:46.759Z,96043.00
2023-01-25T06:09:13.732Z,96066.94
2023-01-25T06:11:44.919Z,96064.56
2023-01-25T06:14:11.990Z,96053.28
2023-01-25T06:16:38.666Z,96060.53
2023-01-25T06:19:06.619Z,96079.09
2023-01-25T06:21:37.190Z,96079.53
2023-01-25T06:24:06.938Z,96059.00
2023-01-25T06:26:33.719Z,96080.94
2023-01-25T06:29:00.327Z,96079.59
2023-01-25T06:31:27.034Z,96076.16
2023-01-25T06:33:53.857Z,96067.34
2023-01-25T06:36:21.847Z,96060.13
2023-01-25T06:38:50.857Z,96063.25
2023-01-25T06:41:18.396Z,96064.25
2023-01-25T06:43:47.123Z,96050.00
2023-01-25T06:46:14.185Z,96057.75
2023-01-25T06:48:43.003Z,96073.44
2023-01-25T06:51:12.268Z,96061.19
2023-01-25T06:53:41.501Z,96057.50
2023-01-25T06:56:22.568Z,96025.22
2023-01-25T06:58:49.785Z,96070.47
2023-01-25T07:01:27.221Z,96065.13
2023-01-25T07:04:03.033Z,95989.03
2023-01-25T07:06:35.101Z,96058.16
2023-01-25T07:09:23.889Z,95950.06
2023-01-25T07:12:12.190Z,96018.03
2023-01-25T07:14:39.130Z,96050.47
2023-01-25T07:17:05.867Z,95959.25
2023-01-25T07:19:32.629Z,96000.31
2023-01-25T07:22:02.156Z,96084.53
2023-01-25T07:24:29.770Z,96009.53
2023-01-25T07:26:56.574Z,96073.09
2023-01-25T07:29:23.529Z,96042.19
2023-01-25T07:31:50.255Z,95998.34
2023-01-25T07:34:21.769Z,96090.09
2023-01-25T07:36:48.368Z,95984.75
2023-01-25T07:39:15.345Z,96061.16
2023-01-25T07:41:41.991Z,96078.97
2023-01-25T07:44:10.725Z,96058.66
2023-01-25T07:46:37.805Z,96033.56
2023-01-25T07:49:04.424Z,96068.78
2023-01-25T07:51:31.615Z,96092.94
2023-01-25T07:54:03.268Z,96058.28
2023-01-25T07:56:32.345Z,96079.25
2023-01-25T07:59:02.571Z,96084.13
2023-01-25T08:01:32.399Z,96077.25
2023-01-25T08:03:59.698Z,96074.16
2023-01-25T08:06:30.883Z,96063.84
2023-01-25T08:08:58.666Z,96038.66
2023-01-25T08:11:30.466Z,96008.97
2023-01-25T08:14:03.309Z,96017.84
2023-01-25T08:16:32.006Z,96028.22
2023-01-25T08:19:01.030Z,96059.22
2023-01-25T08:21:31.492Z,96076.53
2023-01-25T08:24:00.030Z,96064.59
2023-01-25T08:26:27.709Z,96067.34
2023-01-25T08:28:54.553Z,96074.28
2023-01-25T08:31:24.904Z,96081.44
2023-01-25T08:33:52.142Z,96064.03
2023-01-25T08:36:20.264Z,96070.63
2023-01-25T08:38:48.189Z,96039.00
2023-01-25T08:41:18.372Z,96079.91
2023-01-25T08:43:45.990Z,96052.59
2023-01-25T08:46:15.615Z,96041.53
2023-01-25T08:48:42.268Z,96057.41
2023-01-25T08:51:11.831Z,96075.91
2023-01-25T08:53:38.653Z,96080.84
2023-01-25T08:56:07.651Z,96043.78
2023-01-25T08:58:35.395Z,95996.69
2023-01-25T09:01:09.083Z,96063.44
2023-01-25T09:03:41.220Z,96044.22
2023-01-25T09:06:09.126Z,96053.84
2023-01-25T09:08:38.148Z,96039.50
2023-01-25T09:11:11.649Z,96060.44
2023-01-25T09:13:38.305Z,96055.72
2023-01-25T09:16:10.322Z,96072.63
2023-01-25T09:18:39.970Z,96062.28
2023-01-25T09:21:12.144Z,96063.72
2023-01-25T09:23:50.531Z,96067.16
2023-01-25T09:26:24.525Z,96044.22
2023-01-25T09:28:53.085Z,96043.19
2023-01-25T09:31:23.250Z,96023.25
2023-01-25T09:33:52.216Z,96034.09
2023-01-25T09:36:19.330Z,96030.59
2023-01-25T09:38:46.077Z,96034.88
2023-01-25T09:41:31.573Z,96033.03
2023-01-25T09:44:00.195Z,96029.50
2023-01-25T09:46:50.212Z,96006.34
2023-01-25T09:49:42.783Z,96010.56
2023-01-25T09:52:32.797Z,95998.66
2023-01-25T09:54:59.627Z,96005.94
2023-01-25T09:57:36.979Z,96004.50
2023-01-25T10:00:19.271Z,95982.63
2023-01-25T10:03:04.503Z,95948.00
2023-01-25T10:05:37.315Z,95996.59
2023-01-25T10:08:12.022Z,95938.88
2023-01-25T10:10:42.262Z,95962.78
2023-01-25T10:13:14.191Z,95962.41
2023-01-25T10:15:46.321Z,95964.44
2023-01-25T10:18:27.675Z,95975.63
2023-01-25T10:21:01.686Z,95956.06
2023-01-25T10:23:43.196Z,95961.44
2023-01-25T10:26:30.103Z,95968.84
2023-01-25T10:29:10.956Z,95950.47
2023-01-25T10:31:46.588Z,95952.75
2023-01-25T10:34:22.380Z,95946.94
2023-01-25T10:36:54.534Z,95926.63
2023-01-25T10:39:21.903Z,95888.06
2023-01-25T10:41:54.143Z,95940.44
2023-01-25T10:44:27.036Z,95934.69
2023-01-25T10:46:56.725Z,95926.63
2023-01-25T10:49:52.106Z,95927.09
2023-01-25T10:52:27.072Z,95920.59
2023-01-25T10:55:08.202Z,95921.38
2023-01-25T10:57:36.321Z,95939.50
2023-01-25T11:00:10.604Z,95919.50
2023-01-25T11:02:45.943Z,95872.63
2023-01-25T11:05:18.839Z,95926.44
2023-01-25T11:07:49.160Z,95860.75
2023-01-25T11:10:27.820Z,95915.31
2023-01-25T11:13:16.364Z,95910.75
2023-01-25T11:15:45.381Z,95893.06
2023-01-25T11:18:25.336Z,95901.53
2023-01-25T11:21:14.991Z,95863.47
2023-01-25T11:23:41.947Z,95880.41
2023-01-25T11:26:13.461Z,95883.50
2023-01-25T11:28:40.426Z,95894.25
2023-01-25T11:31:15.055Z,95891.16
2023-01-25T11:33:42.317Z,95883.84
2023-01-25T11:36:26.431Z,95858.09
2023-01-25T11:39:03.507Z,95843.50
2023-01-25T11:41:48.475Z,95869.25
2023-01-25T11:44:51.780Z,95870.00
2023-01-25T11:48:15.571Z,95858.88
2023-01-25T11:50:50.993Z,95846.19
2023-01-25T11:53:26.868Z,95843.13
2023-01-25T11:56:14.927Z,95840.03
2023-01-25T11:58:41.490Z,95841.97
2023-01-25T12:01:20.901Z,95834.66
2023-01-25T12:04:09.306Z,95842.38
2023-01-25T12:06:50.008Z,95811.63
2023-01-25T12:09:29.041Z,95835.06
2023-01-25T12:12:10.809Z,95832.75
2023-01-25T12:14:40.355Z,95838.50
2023-01-25T12:17:28.090Z,95812.38
2023-01-25T12:20:07.464Z,95826.22
2023-01-25T12:22:52.601Z,95822.75
2023-01-25T12:25:33.899Z,95816.59
2023-01-25T12:28:13.090Z,95814.69
2023-01-25T12:30:48.769Z,95826.59
2023-01-25T12:33:22.714Z,95817.00
2023-01-25T12:36:00.120Z,95813.94
2023-01-25T12:38:49.629Z,95801.63
2023-01-25T12:41:28.432Z,95798.56
2023-01-25T12:44:13.151Z,95800.88
2023-01-25T12:46:52.809Z,95803.53
2023-01-25T12:49:37.397Z,95781.66
2023-01-25T12:52:22.162Z,95785.47
2023-01-25T12:54:51.017Z,95776.28
2023-01-25T12:57:36.070Z,95792.41
2023-01-25T13:00:09.988Z,95789.34
2023-01-25T13:03:06.171Z,95791.66
2023-01-25T13:05:41.096Z,95784.34
2023-01-25T13:08:32.163Z,95774.34
2023-01-25T13:11:19.408Z,95759.38
2023-01-25T13:13:46.179Z,95772.06
2023-01-25T13:16:36.810Z,95766.28
2023-01-25T13:19:03.847Z,95753.63
2023-01-25T13:21:46.567Z,95774.75
2023-01-25T13:24:24.083Z,95777.06
2023-01-25T13:26:54.222Z,95765.53
2023-01-25T13:29:35.801Z,95765.16
2023-01-25T13:32:04.189Z,95770.16
2023-01-25T13:34:38.207Z,95775.13
2023-01-25T13:37:22.947Z,95775.13
2023-01-25T13:39:54.661Z,95771.69
2023-01-25T13:42:22.817Z,95764.00
2023-01-25T13:44:59.248Z,95770.91
2023-01-25T13:47:30.009Z,95778.59
2023-01-25T13:50:14.660Z,95778.59
2023-01-25T13:52:58.567Z,95770.13
2023-01-25T13:55:25.946Z,95777.06
2023-01-25T13:57:54.661Z,95782.81
2023-01-25T14:00:21.839Z,95758.19
2023-01-25T14:02:55.103Z,95786.63
2023-01-25T14:05:24.887Z,95787.03
2023-01-25T14:07:54.482Z,95782.03
2023-01-25T14:10:27.926Z,95773.97
2023-01-25T14:13:00.210Z,95772.81
2023-01-25T14:15:28.315Z,95790.47
2023-01-25T14:18:34.431Z,95752.44
2023-01-25T14:21:20.371Z,95767.38
2023-01-25T14:23:48.689Z,95779.66
2023-01-25T14:26:25.023Z,95780.84
2023-01-25T14:29:01.383Z,95769.34
2023-01-25T14:31:34.651Z,95773.56
2023-01-25T14:34:04.287Z,95772.75
2023-01-25T14:36:34.489Z,95761.59
2023-01-25T14:39:03.228Z,95748.88
2023-01-25T14:41:38.825Z,95745.41
2023-01-25T14:44:12.978Z,95759.25
2023-01-25T14:46:40.798Z,95758.03
2023-01-25T14:49:13.505Z,95764.91
2023-01-25T14:51:49.772Z,95743.81
2023-01-25T14:54:21.057Z,95761.50
2023-01-25T14:56:50.713Z,95747.66
2023-01-25T14:59:28.751Z,95713.00
2023-01-25T15:01:58.848Z,95747.19
2023-01-25T15:04:25.537Z,95774.44
2023-01-25T15:06:55.194Z,95752.16
2023-01-25T15:09:38.304Z,95780.56
2023-01-25T15:12:24.971Z,95789.81
2023-01-25T15:14:53.889Z,95793.22
2023-01-25T15:17:36.745Z,95775.19
2023-01-25T15:20:04.112Z,95806.69
2023-01-25T15:22:30.856Z,95795.19
2023-01-25T15:24:58.709Z,95796.28
2023-01-25T15:27:25.379Z,95791.59
2023-01-25T15:29:52.136Z,95798.97
2023-01-25T15:32:21.147Z,95805.88
2023-01-25T15:34:48.402Z,95807.41
2023-01-25T15:37:15.068Z,95782.00
2023-01-25T15:39:42.119Z,95802.69
2023-01-25T15:42:09.293Z,95799.47
2023-01-25T15:44:35.900Z,95798.41
2023-01-25T15:47:02.565Z,95814.09
2023-01-25T15:49:31.722Z,95811.78
2023-01-25T15:51:58.784Z,95799.84
2023-01-25T15:54:26.419Z,95811.31
2023-01-25T15:56:56.548Z,95802.84
2023-01-25T15:59:23.380Z,95784.38
2023-01-25T16:01:50.051Z,95813.94
2023-01-25T16:04:16.877Z,95801.22
2023-01-25T16:06:48.526Z,95797.47
2023-01-25T16:09:15.219Z,95803.16
2023-01-25T16:11:42.064Z,95803.13
2023-01-25T16:14:08.686Z,95787.03
2023-01-25T16:16:40.568Z,95783.13
2023-01-25T16:19:07.430Z,95807.03
2023-01-25T16:21:34.022Z,95804.72
2023-01-25T16:24:00.826Z,95799.66
2023-01-25T16:26:28.889Z,95796.53
2023-01-25T16:28:55.784Z,95807.72
2023-01-25T16:31:32.379Z,95770.75
2023-01-25T16:33:59.865Z,95791.50
2023-01-25T16:36:26.731Z,95805.34
2023-01-25T16:38:53.360Z,95784.16
2023-01-25T16:41:20.071Z,95788.03
2023-01-25T16:43:48.342Z,95795.25
2023-01-25T16:46:23.408Z,95806.22
2023-01-25T16:48:55.238Z,95796.31
2023-01-25T16:51:25.079Z,95801.81
2023-01-25T16:53:55.556Z,95791.41
2023-01-25T16:56:24.717Z,95794.88
2023-01-25T16:58:52.173Z,95809.41
2023-01-25T17:01:20.437Z,95790.19
2023-01-25T17:03:48.455Z,95771.81
2023-01-25T17:06:29.512Z,95773.38
2023-01-25T17:09:00.307Z,95788.03
2023-01-25T17:11:27.634Z,95785.41
2023-01-25T17:13:56.920Z,95765.78
2023-01-25T17:16:25.756Z,95785.81
2023-01-25T17:19:02.782Z,95785.38
2023-01-25T17:21:29.604Z,95776.84
2023-01-25T17:23:58.053Z,95775.03
2023-01-25T17:26:25.414Z,95796.94
2023-01-25T17:28:52.602Z,95788.44
2023-01-25T17:31:22.432Z,95778.03
2023-01-25T17:33:49.976Z,95769.53
2023-01-25T17:36:17.038Z,95781.47
2023-01-25T17:38:44.214Z,95778.78
2023-01-25T17:41:13.608Z,95762.16
2023-01-25T17:43:40.479Z,95781.03
2023-01-25T17:46:14.746Z,95747.00
2023-01-25T17:48:41.777Z,95777.88
2023-01-25T17:51:08.646Z,95764.88
2023-01-25T17:53:35.550Z,95751.91
2023-01-25T17:56:04.589Z,95663.78
2023-01-25T17:58:34.379Z,95769.19
2023-01-25T18:01:13.103Z,95764.19
2023-01-25T18:03:42.184Z,95762.28
2023-01-25T18:06:09.759Z,95738.75
2023-01-25T18:08:48.263Z,95736.16
2023-01-25T18:11:18.501Z,95751.56
2023-01-25T18:13:48.076Z,95743.78
2023-01-25T18:16:15.877Z,95747.66
2023-01-25T18:18:43.983Z,95747.72
2023-01-25T18:21:13.245Z,95721.16
2023-01-25T18:23:41.459Z,95740.03
2023-01-25T18:26:17.631Z,95742.81
2023-01-25T18:28:44.734Z,95718.94
2023-01-25T18:31:15.816Z,95722.38
2023-01-25T18:33:42.659Z,95741.53
2023-01-25T18:36:13.689Z,95737.38
2023-01-25T18:38:40.607Z,95749.63
2023-01-25T18:41:08.217Z,95717.41
2023-01-25T18:43:35.349Z,95745.78
2023-01-25T18:46:02.780Z,95750.03
2023-01-25T18:48:32.633Z,95750.78
2023-01-25T18:51:12.900Z,95730.44
2023-01-25T18:53:41.605Z,95742.75
2023-01-25T18:56:19.462Z,95750.06
2023-01-25T18:58:46.737Z,95750.78
2023-01-25T19:01:16.030Z,95719.69
2023-01-25T19:03:44.108Z,95712.28
2023-01-25T19:06:11.021Z,95712.56
2023-01-25T19:08:41.597Z,95737.75
2023-01-25T19:11:11.379Z,95732.78
2023-01-25T19:13:39.659Z,95693.56
2023-01-25T19:16:10.682Z,95738.84
2023-01-25T19:18:41.287Z,95701.66
2023-01-25T19:21:10.454Z,95683.41
2023-01-25T19:23:39.528Z,95714.19
2023-01-25T19:26:08.409Z,95724.13
2023-01-25T19:28:35.411Z,95683.44
2023-01-25T19:31:11.179Z,95695.50
2023-01-25T19:33:38.637Z,95697.00
2023-01-25T19:36:07.303Z,95706.63
2023-01-25T19:38:38.649Z,95703.47
2023-01-25T19:41:07.911Z,95693.91
2023-01-25T19:43:34.655Z,95693.16
2023-01-25T19:46:20.506Z,95709.22
2023-01-25T19:48:50.185Z,95689.56
2023-01-25T19:51:25.071Z,95704.91
2023-01-25T19:54:03.445Z,95696.13
2023-01-25T19:56:39.577Z,95683.88
2023-01-25T19:59:12.364Z,95699.25
2023-01-25T20:01:44.044Z,95667.72
2023-01-25T20:04:16.151Z,95689.69
2023-01-25T20:06:42.897Z,95686.28
2023-01-25T20:09:12.834Z,95681.66
2023-01-25T20:11:39.914Z,95671.72
2023-01-25T20:14:07.153Z,95678.63
2023-01-25T20:16:35.112Z,95660.94
2023-01-25T20:19:02.736Z,95683.97
2023-01-25T20:21:31.401Z,95659.72
2023-01-25T20:24:02.688Z,95665.59
2023-01-25T20:26:32.504Z,95676.31
2023-01-25T20:29:00.115Z,95637.84
2023-01-25T20:31:30.352Z,95669.38
2023-01-25T20:33:59.559Z,95664.47
2023-01-25T20:36:28.767Z,95672.56
2023-01-25T20:38:56.364Z,95650.22
2023-01-25T20:41:23.793Z,95650.22
2023-01-25T20:44:02.271Z,95628.38
2023-01-25T20:46:29.802Z,95590.28
2023-01-25T20:48:56.524Z,95612.16
2023-01-25T20:51:24.003Z,95647.25
2023-01-25T20:53:50.839Z,95595.03
2023-01-25T20:56:18.970Z,95600.00
2023-01-25T20:58:50.656Z,95628.41
2023-01-25T21:01:21.165Z,95589.91
2023-01-25T21:03:48.415Z,95630.38
2023-01-25T21:06:16.504Z,95609.63
2023-01-25T21:08:43.722Z,95589.13
2023-01-25T21:11:11.497Z,95608.81
2023-01-25T21:13:38.213Z,95569.59
2023-01-25T21:18:58.383Z,95620.31
2023-01-25T21:21:38.538Z,95601.06
2023-01-25T21:24:05.943Z,95590.31
2023-01-25T21:26:34.460Z,95598.09
2023-01-25T21:29:02.366Z,95608.84
2023-01-25T21:31:32.954Z,95598.00
2023-01-25T21:34:00.381Z,95617.97
2023-01-25T21:36:27.599Z,95583.88
2023-01-25T21:39:01.306Z,95559.06
2023-01-25T21:41:31.941Z,95617.59
2023-01-25T21:44:19.164Z,95543.41
2023-01-25T21:47:06.004Z,95551.88
2023-01-25T21:49:51.990Z,95573.41
2023-01-25T21:52:18.577Z,95604.13
2023-01-25T21:54:45.158Z,95579.28
2023-01-25T21:57:11.808Z,95588.13
2023-01-25T21:59:40.822Z,95589.69
2023-01-25T22:02:13.565Z,95588.84
2023-01-25T22:04:40.248Z,95519.44
2023-01-25T22:07:08.928Z,95542.16
2023-01-25T22:09:36.059Z,95541.69
2023-01-25T22:12:08.749Z,95533.66
2023-01-25T22:14:35.488Z,95537.06
2023-01-25T22:17:03.224Z,95586.25
2023-01-25T22:19:29.976Z,95484.84
2023-01-25T22:21:56.575Z,95563.22
2023-01-25T22:24:23.360Z,95555.22
2023-01-25T22:27:08.458Z,95564.06
2023-01-25T22:29:35.234Z,95538.31
2023-01-25T22:32:02.553Z,95531.81
2023-01-25T22:34:29.175Z,95558.28
2023-01-25T22:36:55.833Z,95546.81
2023-01-25T22:39:22.554Z,95524.97
2023-01-25T22:41:49.205Z,95492.47
2023-01-25T22:44:16.719Z,95502.78
2023-01-25T22:46:43.434Z,95517.34
2023-01-25T22:49:10.066Z,95512.78
2023-01-25T22:51:36.670Z,95492.53
2023-01-25T22:54:03.396Z,95506.28
2023-01-25T22:56:32.227Z,95506.66
2023-01-25T22:59:00.022Z,95507.13
2023-01-25T23:01:29.846Z,95468.00
2023-01-25T23:03:57.255Z,95505.97
2023-01-25T23:06:29.850Z,95505.19
2023-01-25T23:08:59.969Z,95507.94
2023-01-25T23:11:32.323Z,95485.38
2023-01-25T23:14:18.125Z,95489.13
2023-01-25T23:16:45.064Z,95495.63
2023-01-25T23:19:13.078Z,95465.41
2023-01-25T23:21:41.232Z,95470.34
2023-01-25T23:24:08.843Z,95474.50
2023-01-25T23:26:41.049Z,95461.81
2023-01-25T23:29:12.296Z,95478.69
2023-01-25T23:31:39.153Z,95475.19
2023-01-25T23:34:06.989Z,95480.94
2023-01-25T23:36:36.160Z,95457.50
2023-01-25T23:39:02.999Z,95470.56
2023-01-25T23:41:30.653Z,95469.00
2023-01-25T23:43:58.051Z,95459.84
2023-01-25T23:46:25.613Z,95456.03
2023-01-25T23:48:52.551Z,95461.00
2023-01-25T23:51:19.954Z,95441.81
2023-01-25T23:53:47.028Z,95441.03
2023-01-25T23:56:17.129Z,95417.31
2023-01-25T23:58:44.761Z,95443.72
